createdAt,value
2022-11-14T00:01:21.721Z,5.52
2022-11-14T00:03:54.960Z,5.61
2022-11-14T00:06:23.128Z,5.51
2022-11-14T00:08:50.981Z,5.75
2022-11-14T00:11:18.864Z,5.68
2022-11-14T00:13:46.957Z,5.75
2022-11-14T00:16:14.920Z,5.76
2022-11-14T00:18:42.905Z,5.78
2022-11-14T00:21:12.607Z,5.79
2022-11-14T00:23:40.452Z,5.61
2022-11-14T00:26:08.660Z,5.72
2022-11-14T00:28:36.900Z,5.82
2022-11-14T00:31:04.842Z,5.83
2022-11-14T00:33:32.731Z,5.84
2022-11-14T00:36:00.946Z,5.67
2022-11-14T00:38:30.510Z,5.74
2022-11-14T00:40:58.550Z,5.87
2022-11-14T00:43:26.531Z,5.87
2022-11-14T00:45:54.465Z,5.87
2022-11-14T00:48:22.713Z,5.87
2022-11-14T00:50:50.972Z,5.86
2022-11-14T00:53:19.333Z,5.86
2022-11-14T00:55:48.601Z,5.86
2022-11-14T00:58:16.620Z,5.85
2022-11-14T01:00:44.619Z,5.85
2022-11-14T01:03:12.639Z,5.85
2022-11-14T01:05:43.654Z,5.85
2022-11-14T01:08:12.167Z,5.86
2022-11-14T01:10:41.860Z,5.52
2022-11-14T01:13:12.068Z,5.90
2022-11-14T01:15:40.673Z,5.91
2022-11-14T01:18:08.765Z,5.92
2022-11-14T01:20:39.356Z,5.96
2022-11-14T01:23:07.401Z,5.98
2022-11-14T01:25:36.081Z,6.02
2022-11-14T01:28:07.603Z,6.04
2022-11-14T01:30:37.424Z,6.06
2022-11-14T01:33:06.149Z,6.09
2022-11-14T01:35:35.525Z,5.83
2022-11-14T01:38:03.824Z,6.12
2022-11-14T01:40:32.008Z,6.13
2022-11-14T01:43:25.620Z,6.17
2022-11-14T01:45:58.356Z,6.18
2022-11-14T01:48:29.859Z,6.10
2022-11-14T01:51:01.633Z,5.72
2022-11-14T01:53:30.627Z,6.23
2022-11-14T01:56:03.134Z,5.80
2022-11-14T01:58:32.947Z,6.27
2022-11-14T02:01:02.625Z,6.26
2022-11-14T02:03:31.033Z,6.26
2022-11-14T02:06:00.804Z,6.08
2022-11-14T02:08:29.214Z,5.84
2022-11-14T02:10:57.427Z,6.30
2022-11-14T02:13:25.584Z,6.33
2022-11-14T02:15:53.494Z,6.37
2022-11-14T02:18:22.749Z,6.41
2022-11-14T02:20:52.090Z,6.44
2022-11-14T02:23:27.411Z,6.41
2022-11-14T02:25:55.839Z,6.27
2022-11-14T02:28:23.783Z,6.29
2022-11-14T02:30:51.828Z,6.51
2022-11-14T02:33:20.534Z,6.56
2022-11-14T02:35:51.053Z,6.60
2022-11-14T02:38:18.909Z,6.65
2022-11-14T02:40:47.025Z,6.61
2022-11-14T02:43:14.838Z,6.63
2022-11-14T02:45:42.968Z,6.31
2022-11-14T02:48:11.269Z,6.82
2022-11-14T02:50:39.129Z,6.86
2022-11-14T02:53:08.581Z,6.68
2022-11-14T02:55:36.980Z,6.83
2022-11-14T02:58:04.848Z,6.98
2022-11-14T03:00:32.766Z,7.00
2022-11-14T03:03:00.942Z,7.04
2022-11-14T03:05:29.041Z,7.07
2022-11-14T03:07:57.788Z,7.12
2022-11-14T03:10:27.252Z,7.14
2022-11-14T03:12:55.903Z,7.17
2022-11-14T03:15:24.477Z,7.22
2022-11-14T03:17:52.862Z,7.08
2022-11-14T03:20:20.845Z,7.25
2022-11-14T03:22:48.682Z,7.29
2022-11-14T03:25:17.171Z,7.23
2022-11-14T03:27:46.381Z,7.23
2022-11-14T03:30:14.974Z,7.37
2022-11-14T03:32:43.049Z,7.29
2022-11-14T03:35:12.048Z,7.43
2022-11-14T03:37:40.125Z,7.37
2022-11-14T03:40:09.691Z,7.47
2022-11-14T03:42:37.609Z,7.00
2022-11-14T03:45:08.862Z,7.42
2022-11-14T03:47:36.784Z,7.53
2022-11-14T03:50:05.151Z,7.55
2022-11-14T03:52:34.352Z,7.56
2022-11-14T03:55:02.302Z,7.59
2022-11-14T03:57:30.131Z,7.48
2022-11-14T03:59:58.089Z,7.63
2022-11-14T04:02:27.444Z,7.65
2022-11-14T04:04:55.321Z,7.69
2022-11-14T04:07:23.521Z,7.70
2022-11-14T04:09:52.165Z,7.72
2022-11-14T04:12:20.344Z,7.73
2022-11-14T04:14:48.273Z,7.75
2022-11-14T04:17:16.268Z,7.60
2022-11-14T04:19:45.520Z,7.78
2022-11-14T04:22:13.570Z,7.60
2022-11-14T04:24:41.587Z,7.68
2022-11-14T04:27:09.535Z,7.76
2022-11-14T04:29:37.458Z,7.74
2022-11-14T04:32:06.008Z,7.73
2022-11-14T04:34:34.550Z,7.71
2022-11-14T04:37:03.887Z,7.59
2022-11-14T04:39:31.914Z,7.67
2022-11-14T04:41:59.838Z,7.47
2022-11-14T04:44:27.779Z,7.64
2022-11-14T04:46:55.833Z,7.53
2022-11-14T04:49:24.263Z,7.60
2022-11-14T04:51:52.227Z,7.57
2022-11-14T04:54:21.663Z,7.06
2022-11-14T04:56:49.522Z,7.53
2022-11-14T04:59:20.851Z,7.51
2022-11-14T05:01:49.288Z,7.48
2022-11-14T05:04:17.479Z,7.46
2022-11-14T05:06:45.633Z,7.10
2022-11-14T05:09:13.683Z,7.05
2022-11-14T05:11:42.960Z,7.40
2022-11-14T05:14:10.926Z,7.38
2022-11-14T05:16:38.953Z,7.38
2022-11-14T05:19:06.842Z,7.39
2022-11-14T05:21:34.849Z,7.41
2022-11-14T05:24:02.812Z,7.28
2022-11-14T05:26:30.755Z,7.22
2022-11-14T05:29:00.162Z,7.33
2022-11-14T05:31:28.245Z,7.20
2022-11-14T05:33:56.139Z,7.34
2022-11-14T05:36:24.398Z,7.37
2022-11-14T05:38:52.380Z,7.37
2022-11-14T05:41:21.125Z,7.34
2022-11-14T05:43:49.157Z,7.33
2022-11-14T05:46:18.798Z,7.18
2022-11-14T05:48:46.856Z,7.11
2022-11-14T05:51:15.194Z,7.32
2022-11-14T05:53:43.354Z,7.35
2022-11-14T05:56:13.052Z,7.38
2022-11-14T05:58:41.168Z,7.42
2022-11-14T06:01:10.893Z,7.22
2022-11-14T06:03:42.043Z,6.92
2022-11-14T06:06:12.056Z,7.12
2022-11-14T06:08:40.482Z,7.39
2022-11-14T06:11:10.101Z,7.35
2022-11-14T06:13:38.472Z,7.34
2022-11-14T06:16:08.338Z,7.30
2022-11-14T06:18:37.007Z,7.44
2022-11-14T06:21:08.244Z,7.56
2022-11-14T06:23:36.163Z,7.56
2022-11-14T06:26:06.002Z,7.57
2022-11-14T06:28:34.593Z,7.47
2022-11-14T06:31:03.956Z,7.37
2022-11-14T06:33:37.263Z,7.55
2022-11-14T06:36:08.302Z,7.56
2022-11-14T06:38:38.740Z,7.56
2022-11-14T06:41:08.052Z,7.38
2022-11-14T06:43:36.503Z,7.10
2022-11-14T06:46:05.842Z,7.48
2022-11-14T06:48:33.949Z,7.46
2022-11-14T06:51:02.677Z,7.55
2022-11-14T06:53:33.838Z,7.57
2022-11-14T06:56:03.239Z,7.59
2022-11-14T06:58:33.060Z,7.61
2022-11-14T07:01:05.945Z,7.64
2022-11-14T07:03:34.143Z,7.68
2022-11-14T07:06:02.524Z,7.72
2022-11-14T07:08:33.167Z,7.72
2022-11-14T07:11:05.287Z,7.66
2022-11-14T07:13:34.239Z,7.76
2022-11-14T07:16:03.024Z,7.68
2022-11-14T07:18:31.985Z,7.57
2022-11-14T07:21:01.795Z,7.77
2022-11-14T07:23:31.540Z,7.85
2022-11-14T07:26:02.010Z,7.79
2022-11-14T07:28:30.366Z,7.87
2022-11-14T07:30:58.601Z,7.85
2022-11-14T07:33:26.495Z,7.89
2022-11-14T07:35:54.619Z,7.23
2022-11-14T07:38:22.610Z,7.84
2022-11-14T07:41:02.837Z,7.82
2022-11-14T07:43:31.119Z,7.58
2022-11-14T07:46:01.061Z,7.85
2022-11-14T07:48:29.874Z,7.81
2022-11-14T07:51:00.168Z,7.89
2022-11-14T07:53:28.052Z,7.81
2022-11-14T07:55:56.342Z,7.88
2022-11-14T07:58:25.635Z,7.91
2022-11-14T08:00:53.531Z,7.87
2022-11-14T08:03:21.728Z,7.88
2022-11-14T08:05:49.682Z,7.85
2022-11-14T08:08:17.692Z,7.90
2022-11-14T08:10:46.223Z,7.93
2022-11-14T08:16:12.331Z,7.88
2022-11-14T08:18:40.825Z,7.87
2022-11-14T08:21:09.237Z,7.84
2022-11-14T08:23:37.182Z,7.85
2022-11-14T08:26:05.283Z,7.79
2022-11-14T08:28:33.588Z,7.86
2022-11-14T08:31:02.530Z,7.88
2022-11-14T08:33:32.644Z,7.89
2022-11-14T08:36:02.336Z,7.86
2022-11-14T08:38:30.419Z,7.90
2022-11-14T08:40:59.820Z,7.90
2022-11-14T08:43:28.194Z,7.97
2022-11-14T08:46:01.567Z,8.01
2022-11-14T08:48:32.720Z,8.05
2022-11-14T08:51:04.377Z,8.03
2022-11-14T08:53:32.847Z,8.07
2022-11-14T08:56:01.016Z,8.06
2022-11-14T08:58:31.367Z,8.06
2022-11-14T09:01:04.142Z,7.84
2022-11-14T09:03:33.905Z,8.09
2022-11-14T09:06:04.063Z,8.08
2022-11-14T09:08:32.761Z,8.00
2022-11-14T09:11:09.259Z,7.88
2022-11-14T09:13:38.074Z,8.06
2022-11-14T09:16:06.625Z,8.06
2022-11-14T09:18:36.036Z,8.06
2022-11-14T09:21:05.595Z,7.88
2022-11-14T09:23:33.946Z,8.10
2022-11-14T09:26:05.410Z,8.12
2022-11-14T09:28:33.976Z,8.01
2022-11-14T09:31:02.673Z,8.29
2022-11-14T09:33:31.124Z,8.21
2022-11-14T09:36:02.104Z,8.15
2022-11-14T09:38:35.366Z,8.28
2022-11-14T09:41:23.620Z,8.38
2022-11-14T09:44:20.918Z,8.34
2022-11-14T09:46:54.766Z,8.37
2022-11-14T09:49:28.511Z,8.36
2022-11-14T09:52:03.038Z,8.37
2022-11-14T09:54:41.604Z,8.37
2022-11-14T09:57:16.934Z,8.41
2022-11-14T09:59:45.284Z,8.09
2022-11-14T10:02:37.481Z,8.35
2022-11-14T10:05:31.764Z,8.35
2022-11-14T10:08:15.672Z,8.28
2022-11-14T10:10:52.297Z,8.31
2022-11-14T10:13:37.330Z,8.11
2022-11-14T10:16:12.004Z,8.15
2022-11-14T10:18:55.615Z,8.21
2022-11-14T10:21:40.918Z,8.12
2022-11-14T10:24:27.988Z,8.15
2022-11-14T10:27:03.246Z,8.14
2022-11-14T10:29:53.583Z,8.20
2022-11-14T10:32:33.221Z,8.22
2022-11-14T10:35:05.892Z,8.17
2022-11-14T10:37:39.026Z,8.22
2022-11-14T10:40:19.030Z,8.20
2022-11-14T10:42:50.305Z,8.13
2022-11-14T10:45:25.656Z,8.12
2022-11-14T10:47:57.908Z,7.98
2022-11-14T10:50:34.479Z,8.18
2022-11-14T10:53:06.286Z,8.15
2022-11-14T10:56:02.517Z,8.16
2022-11-14T10:58:24.355Z,8.18
2022-11-14T11:00:52.643Z,8.21
2022-11-14T11:03:20.525Z,8.21
2022-11-14T11:05:55.021Z,8.09
2022-11-14T11:08:43.861Z,8.15
2022-11-14T11:11:38.511Z,8.21
2022-11-14T11:14:06.895Z,8.20
2022-11-14T11:16:34.787Z,8.26
2022-11-14T11:19:23.508Z,8.24
2022-11-14T11:21:53.209Z,8.21
2022-11-14T11:24:35.480Z,8.25
2022-11-14T11:27:16.332Z,8.20
2022-11-14T11:29:45.045Z,8.26
2022-11-14T11:32:24.441Z,8.30
2022-11-14T11:34:52.946Z,8.33
2022-11-14T11:37:25.586Z,8.30
2022-11-14T11:39:57.091Z,8.29
2022-11-14T11:43:12.303Z,8.20
2022-11-14T11:45:22.199Z,8.08
2022-11-14T11:47:57.893Z,7.94
2022-11-14T11:50:26.408Z,8.03
2022-11-14T11:53:08.122Z,7.85
2022-11-14T11:55:41.445Z,8.01
2022-11-14T11:58:21.749Z,8.09
2022-11-14T12:00:55.336Z,8.08
2022-11-14T12:03:25.698Z,8.11
2022-11-14T12:06:04.378Z,7.96
2022-11-14T12:08:40.079Z,8.12
2022-11-14T12:11:15.593Z,8.12
2022-11-14T12:14:10.996Z,8.00
2022-11-14T12:17:16.012Z,8.09
2022-11-14T12:20:08.378Z,7.94
2022-11-14T12:22:56.672Z,8.02
2022-11-14T12:25:44.932Z,7.84
2022-11-14T12:28:30.929Z,7.98
2022-11-14T12:31:04.766Z,7.96
2022-11-14T12:33:35.951Z,7.93
2022-11-14T12:36:09.272Z,7.91
2022-11-14T12:38:44.735Z,7.87
2022-11-14T12:41:13.751Z,7.83
2022-11-14T12:43:44.125Z,7.85
2022-11-14T12:46:14.912Z,7.56
2022-11-14T12:48:44.511Z,7.89
2022-11-14T12:51:50.836Z,7.86
2022-11-14T12:54:44.606Z,7.85
2022-11-14T12:57:45.017Z,7.84
2022-11-14T13:00:13.669Z,7.20
2022-11-14T13:03:17.992Z,7.71
2022-11-14T13:06:01.982Z,7.68
2022-11-14T13:09:02.202Z,7.66
2022-11-14T13:12:00.238Z,7.49
2022-11-14T13:14:47.324Z,7.49
2022-11-14T13:17:50.455Z,7.61
2022-11-14T13:20:47.714Z,7.43
2022-11-14T13:23:57.044Z,7.45
2022-11-14T13:26:52.241Z,7.58
2022-11-14T13:29:50.572Z,7.72
2022-11-14T13:33:06.212Z,7.63
2022-11-14T13:36:02.197Z,7.54
2022-11-14T13:39:08.504Z,7.76
2022-11-14T13:42:21.058Z,7.76
2022-11-14T13:45:27.773Z,7.75
2022-11-14T13:48:46.235Z,7.71
2022-11-14T13:51:42.385Z,7.40
2022-11-14T13:54:17.583Z,7.45
2022-11-14T13:56:58.861Z,7.76
2022-11-14T13:59:46.895Z,7.77
2022-11-14T14:02:48.160Z,7.74
2022-11-14T14:05:25.109Z,7.74
2022-11-14T14:08:06.338Z,7.76
2022-11-14T14:10:42.649Z,7.59
2022-11-14T14:13:32.031Z,7.74
2022-11-14T14:16:06.501Z,7.74
2022-11-14T14:18:45.883Z,7.65
2022-11-14T14:21:24.470Z,7.76
2022-11-14T14:24:03.740Z,7.76
2022-11-14T14:26:42.504Z,7.43
2022-11-14T14:29:23.836Z,7.76
2022-11-14T14:31:52.298Z,7.68
2022-11-14T14:34:23.832Z,7.79
2022-11-14T14:36:53.333Z,7.77
2022-11-14T14:39:25.307Z,7.84
2022-11-14T14:41:55.504Z,7.82
2022-11-14T14:44:27.224Z,7.75
2022-11-14T14:46:55.699Z,7.68
2022-11-14T14:49:27.434Z,7.80
2022-11-14T14:51:58.461Z,7.74
2022-11-14T14:54:29.968Z,7.76
2022-11-14T14:57:01.259Z,7.82
2022-11-14T14:59:31.754Z,7.81
2022-11-14T15:02:02.189Z,7.82
2022-11-14T15:04:31.097Z,7.80
2022-11-14T15:06:59.402Z,7.80
2022-11-14T15:09:30.745Z,7.73
2022-11-14T15:12:01.627Z,7.81
2022-11-14T15:14:32.930Z,7.81
2022-11-14T15:17:01.628Z,7.82
2022-11-14T15:19:36.127Z,7.84
2022-11-14T15:22:06.452Z,7.82
2022-11-14T15:24:35.797Z,7.83
2022-11-14T15:27:06.884Z,7.82
2022-11-14T15:29:34.848Z,7.82
2022-11-14T15:32:03.730Z,7.63
2022-11-14T15:34:34.094Z,7.85
2022-11-14T15:37:19.493Z,7.86
2022-11-14T15:39:49.695Z,7.86
2022-11-14T15:42:22.084Z,7.83
2022-11-14T15:44:50.604Z,7.79
2022-11-14T15:47:24.415Z,7.78
2022-11-14T15:49:58.728Z,7.73
2022-11-14T15:52:32.031Z,7.80
2022-11-14T15:55:01.955Z,7.72
2022-11-14T15:57:30.691Z,7.79
2022-11-14T15:59:58.499Z,7.66
2022-11-14T16:02:29.937Z,7.78
2022-11-14T16:04:59.231Z,7.62
2022-11-14T16:07:28.081Z,7.80
2022-11-14T16:09:56.312Z,7.72
2022-11-14T16:12:25.605Z,7.79
2022-11-14T16:14:53.664Z,7.84
2022-11-14T16:17:21.818Z,7.86
2022-11-14T16:19:49.709Z,7.89
2022-11-14T16:22:19.148Z,7.74
2022-11-14T16:24:47.178Z,7.91
2022-11-14T16:27:15.468Z,7.91
2022-11-14T16:29:44.849Z,7.93
2022-11-14T16:32:12.823Z,7.95
2022-11-14T16:34:40.694Z,7.96
2022-11-14T16:37:14.112Z,7.94
2022-11-14T16:39:42.060Z,7.82
2022-11-14T16:42:12.174Z,7.95
2022-11-14T16:44:42.920Z,7.92
2022-11-14T16:47:16.148Z,7.94
2022-11-14T16:49:44.148Z,7.89
2022-11-14T16:52:13.134Z,7.91
2022-11-14T16:54:41.155Z,8.00
2022-11-14T16:57:09.115Z,7.87
2022-11-14T16:59:36.949Z,7.96
2022-11-14T17:02:05.598Z,7.97
2022-11-14T17:04:35.060Z,7.97
2022-11-14T17:07:03.324Z,7.97
2022-11-14T17:09:31.340Z,7.95
2022-11-14T17:11:59.309Z,7.70
2022-11-14T17:14:27.122Z,7.95
2022-11-14T17:16:55.054Z,7.95
2022-11-14T17:19:23.095Z,7.95
2022-11-14T17:21:52.587Z,7.98
2022-11-14T17:24:20.601Z,7.98
2022-11-14T17:26:48.635Z,7.68
2022-11-14T17:29:16.516Z,7.96
2022-11-14T17:31:46.976Z,7.76
2022-11-14T17:34:15.498Z,7.62
2022-11-14T17:36:43.353Z,7.23
2022-11-14T17:39:12.618Z,7.89
2022-11-14T17:41:40.663Z,7.89
2022-11-14T17:44:09.888Z,7.89
2022-11-14T17:46:37.760Z,7.81
2022-11-14T17:49:05.773Z,7.89
2022-11-14T17:51:33.840Z,7.52
2022-11-14T17:54:01.647Z,7.91
2022-11-14T17:56:31.158Z,7.91
2022-11-14T17:58:59.161Z,7.86
2022-11-14T18:01:28.689Z,7.54
2022-11-14T18:04:00.483Z,7.76
2022-11-14T18:06:30.992Z,7.81
2022-11-14T18:09:01.376Z,7.76
2022-11-14T18:11:30.583Z,7.80
2022-11-14T18:13:58.527Z,7.78
2022-11-14T18:16:44.430Z,7.87
2022-11-14T18:19:14.804Z,7.87
2022-11-14T18:21:50.545Z,7.81
2022-11-14T18:24:25.129Z,7.17
2022-11-14T18:26:55.771Z,7.88
2022-11-14T18:29:23.784Z,7.68
2022-11-14T18:31:51.623Z,7.89
2022-11-14T18:34:19.713Z,7.61
2022-11-14T18:36:47.547Z,7.87
2022-11-14T18:39:15.460Z,7.80
2022-11-14T18:41:43.494Z,7.82
2022-11-14T18:44:12.776Z,7.90
2022-11-14T18:46:40.737Z,7.89
2022-11-14T18:49:09.202Z,7.89
2022-11-14T18:51:42.161Z,7.81
2022-11-14T18:54:11.789Z,7.79
2022-11-14T18:56:39.919Z,7.92
2022-11-14T18:59:07.926Z,7.90
2022-11-14T19:01:37.658Z,7.87
2022-11-14T19:04:07.985Z,7.87
2022-11-14T19:06:37.059Z,7.88
2022-11-14T19:09:11.079Z,7.85
2022-11-14T19:11:57.348Z,7.86
2022-11-14T19:14:25.605Z,7.87
2022-11-14T19:16:54.938Z,7.86
2022-11-14T19:19:22.994Z,7.81
2022-11-14T19:21:51.558Z,7.88
2022-11-14T19:24:19.709Z,7.76
2022-11-14T19:26:47.932Z,7.77
2022-11-14T19:29:16.004Z,7.62
2022-11-14T19:31:44.461Z,7.91
2022-11-14T19:34:13.763Z,7.92
2022-11-14T19:39:30.273Z,7.89
2022-11-14T19:41:58.571Z,7.89
2022-11-14T19:44:26.484Z,7.81
2022-11-14T19:46:54.648Z,7.82
2022-11-14T19:49:24.255Z,7.84
2022-11-14T19:51:52.309Z,7.81
2022-11-14T19:54:20.315Z,7.65
2022-11-14T19:56:48.358Z,7.90
2022-11-14T19:59:20.093Z,7.89
2022-11-14T20:01:55.561Z,7.88
2022-11-14T20:04:25.007Z,7.86
2022-11-14T20:06:53.319Z,7.80
2022-11-14T20:09:21.382Z,7.76
2022-11-14T20:11:49.276Z,7.45
2022-11-14T20:14:17.365Z,7.75
2022-11-14T20:16:46.024Z,7.77
2022-11-14T20:19:14.292Z,7.80
2022-11-14T20:21:43.981Z,7.10
2022-11-14T20:24:14.482Z,7.80
2022-11-14T20:26:42.394Z,7.77
2022-11-14T20:29:10.362Z,7.22
2022-11-14T20:31:38.447Z,7.71
2022-11-14T20:34:06.507Z,7.74
2022-11-14T20:36:56.658Z,7.72
2022-11-14T20:39:24.156Z,7.74
2022-11-14T20:41:52.216Z,7.73
2022-11-14T20:44:20.099Z,7.69
2022-11-14T20:46:48.033Z,7.68
2022-11-14T20:49:16.104Z,7.69
2022-11-14T20:51:45.076Z,7.70
2022-11-14T20:54:13.144Z,7.71
2022-11-14T20:56:42.441Z,7.73
2022-11-14T20:59:10.563Z,7.76
2022-11-14T21:01:43.513Z,7.68
2022-11-14T21:04:12.212Z,7.48
2022-11-14T21:06:40.580Z,7.73
2022-11-14T21:09:09.403Z,7.74
2022-11-14T21:11:37.331Z,7.75
2022-11-14T21:14:06.744Z,7.79
2022-11-14T21:16:38.065Z,7.72
2022-11-14T21:19:07.622Z,7.85
2022-11-14T21:21:47.056Z,7.75
2022-11-14T21:24:15.214Z,7.64
2022-11-14T21:26:43.085Z,7.67
2022-11-14T21:29:14.876Z,7.83
2022-11-14T21:31:45.017Z,7.14
2022-11-14T21:34:15.853Z,7.84
2022-11-14T21:36:45.974Z,7.87
2022-11-14T21:39:16.853Z,7.79
2022-11-14T21:41:48.417Z,7.89
2022-11-14T21:44:19.155Z,7.90
2022-11-14T21:46:48.757Z,7.91
2022-11-14T21:49:16.970Z,7.07
2022-11-14T21:51:45.052Z,7.86
2022-11-14T21:54:13.176Z,7.93
2022-11-14T21:56:41.035Z,7.52
2022-11-14T21:59:15.521Z,7.92
2022-11-14T22:02:04.459Z,7.91
2022-11-14T22:04:32.944Z,7.96
2022-11-14T22:07:02.661Z,7.98
2022-11-14T22:09:31.212Z,7.98
2022-11-14T22:12:00.231Z,7.98
2022-11-14T22:14:29.428Z,7.93
2022-11-14T22:16:59.084Z,7.89
2022-11-14T22:19:27.157Z,7.86
2022-11-14T22:21:55.489Z,7.57
2022-11-14T22:24:23.764Z,7.79
2022-11-14T22:26:51.852Z,7.71
2022-11-14T22:29:20.106Z,7.61
2022-11-14T22:31:47.973Z,7.78
2022-11-14T22:34:17.733Z,7.77
2022-11-14T22:36:45.693Z,7.63
2022-11-14T22:39:13.561Z,6.84
2022-11-14T22:41:41.764Z,7.85
2022-11-14T22:44:09.787Z,7.82
2022-11-14T22:46:37.957Z,7.86
2022-11-14T22:49:06.125Z,7.78
2022-11-14T22:51:35.519Z,7.79
2022-11-14T22:54:03.439Z,7.77
2022-11-14T22:56:31.488Z,7.75
2022-11-14T22:59:00.779Z,7.64
2022-11-14T23:01:31.270Z,7.76
2022-11-14T23:04:01.514Z,7.78
2022-11-14T23:06:30.837Z,7.79
2022-11-14T23:09:00.659Z,7.82
2022-11-14T23:11:30.858Z,7.66
2022-11-14T23:14:00.581Z,7.82
2022-11-14T23:16:30.243Z,7.80
2022-11-14T23:19:00.778Z,7.29
2022-11-14T23:21:31.315Z,7.68
2022-11-14T23:24:02.038Z,7.76
2022-11-14T23:26:31.512Z,7.71
2022-11-14T23:28:59.962Z,7.77
2022-11-14T23:31:28.321Z,7.77
2022-11-14T23:33:58.208Z,7.65
2022-11-14T23:36:26.242Z,7.71
2022-11-14T23:38:54.696Z,7.70
2022-11-14T23:41:26.082Z,7.62
2022-11-14T23:43:54.488Z,7.69
2022-11-14T23:46:22.398Z,7.70
2022-11-14T23:48:51.366Z,7.70
2022-11-14T23:51:19.478Z,7.47
2022-11-14T23:53:48.248Z,7.68
2022-11-14T23:56:16.573Z,7.58
2022-11-14T23:58:45.911Z,7.29
